sensor_id;sensor_type;location;lat;lon;timestamp;pressure;altitude;pressure_sealevel;temperature;humidity
76762;BME280;65705;51.032;13.790;2023-07-20T00:01:26;99930.53;;;18.73;75.84
76762;BME280;65705;51.032;13.790;2023-07-20T00:03:52;99915.50;;;18.61;76.45
76762;BME280;65705;51.032;13.790;2023-07-20T00:06:25;99918.13;;;18.67;76.59
76762;BME280;65705;51.032;13.790;2023-07-20T00:08:55;99914.22;;;18.70;76.79
76762;BME280;65705;51.032;13.790;2023-07-20T00:11:26;99915.19;;;18.75;76.81
76762;BME280;65705;51.032;13.790;2023-07-20T00:13:51;99926.13;;;18.61;77.17
76762;BME280;65705;51.032;13.790;2023-07-20T00:16:17;99917.84;;;18.51;77.34
76762;BME280;65705;51.032;13.790;2023-07-20T00:18:43;99918.28;;;18.41;78.16
76762;BME280;65705;51.032;13.790;2023-07-20T00:21:09;99914.22;;;18.39;78.27
76762;BME280;65705;51.032;13.790;2023-07-20T00:23:35;99912.56;;;18.44;78.77
76762;BME280;65705;51.032;13.790;2023-07-20T00:26:00;99894.75;;;18.45;78.30
76762;BME280;65705;51.032;13.790;2023-07-20T00:28:26;99896.41;;;18.46;77.68
76762;BME280;65705;51.032;13.790;2023-07-20T00:30:52;99906.25;;;18.32;78.55
76762;BME280;65705;51.032;13.790;2023-07-20T00:33:18;99900.78;;;18.27;79.02
76762;BME280;65705;51.032;13.790;2023-07-20T00:35:44;99909.78;;;18.26;79.21
76762;BME280;65705;51.032;13.790;2023-07-20T00:38:10;99905.47;;;18.32;79.37
76762;BME280;65705;51.032;13.790;2023-07-20T00:40:39;99918.91;;;18.43;79.09
76762;BME280;65705;51.032;13.790;2023-07-20T00:43:06;99918.69;;;18.45;78.80
76762;BME280;65705;51.032;13.790;2023-07-20T00:45:33;99926.19;;;18.54;78.52
76762;BME280;65705;51.032;13.790;2023-07-20T00:48:01;99917.22;;;18.49;78.46
76762;BME280;65705;51.032;13.790;2023-07-20T00:50:27;99922.09;;;18.52;78.09
76762;BME280;65705;51.032;13.790;2023-07-20T00:52:57;99927.22;;;18.53;77.75
76762;BME280;65705;51.032;13.790;2023-07-20T00:55:24;99922.59;;;18.42;78.08
76762;BME280;65705;51.032;13.790;2023-07-20T00:57:52;99921.53;;;18.50;78.56
76762;BME280;65705;51.032;13.790;2023-07-20T01:00:18;99925.34;;;18.60;77.76
76762;BME280;65705;51.032;13.790;2023-07-20T01:02:44;99913.66;;;18.61;77.92
76762;BME280;65705;51.032;13.790;2023-07-20T01:05:11;99923.69;;;18.59;77.75
76762;BME280;65705;51.032;13.790;2023-07-20T01:07:54;99923.31;;;18.56;77.80
76762;BME280;65705;51.032;13.790;2023-07-20T01:11:06;99932.88;;;18.63;77.96
76762;BME280;65705;51.032;13.790;2023-07-20T01:13:14;99921.78;;;18.73;76.88
76762;BME280;65705;51.032;13.790;2023-07-20T01:15:39;99916.84;;;18.76;76.72
76762;BME280;65705;51.032;13.790;2023-07-20T01:18:05;99908.81;;;18.83;76.27
76762;BME280;65705;51.032;13.790;2023-07-20T01:20:32;99911.75;;;18.75;76.31
76762;BME280;65705;51.032;13.790;2023-07-20T01:33:46;99931.13;;;18.82;74.10
76762;BME280;65705;51.032;13.790;2023-07-20T01:36:13;99937.22;;;18.82;73.64
76762;BME280;65705;51.032;13.790;2023-07-20T01:38:40;99939.03;;;18.64;74.17
76762;BME280;65705;51.032;13.790;2023-07-20T01:41:07;99949.06;;;18.55;74.79
76762;BME280;65705;51.032;13.790;2023-07-20T01:43:34;99934.22;;;18.48;75.07
76762;BME280;65705;51.032;13.790;2023-07-20T01:45:59;99941.75;;;18.51;74.98
76762;BME280;65705;51.032;13.790;2023-07-20T01:48:26;99943.34;;;18.58;74.51
76762;BME280;65705;51.032;13.790;2023-07-20T01:50:52;99938.44;;;18.55;74.53
76762;BME280;65705;51.032;13.790;2023-07-20T01:53:18;99931.25;;;18.62;74.16
76762;BME280;65705;51.032;13.790;2023-07-20T01:55:43;99933.03;;;18.37;75.04
76762;BME280;65705;51.032;13.790;2023-07-20T01:58:09;99931.38;;;18.43;75.24
76762;BME280;65705;51.032;13.790;2023-07-20T02:00:37;99930.97;;;18.46;74.63
76762;BME280;65705;51.032;13.790;2023-07-20T02:03:02;99942.41;;;18.40;74.99
76762;BME280;65705;51.032;13.790;2023-07-20T02:05:28;99929.53;;;18.37;74.98
76762;BME280;65705;51.032;13.790;2023-07-20T02:07:54;99929.31;;;18.38;75.32
76762;BME280;65705;51.032;13.790;2023-07-20T02:10:21;99929.53;;;18.43;75.15
76762;BME280;65705;51.032;13.790;2023-07-20T02:12:47;99931.75;;;18.40;75.42
76762;BME280;65705;51.032;13.790;2023-07-20T02:15:14;99927.50;;;18.32;75.43
76762;BME280;65705;51.032;13.790;2023-07-20T02:17:42;99926.72;;;18.25;75.86
76762;BME280;65705;51.032;13.790;2023-07-20T02:20:09;99928.38;;;18.26;76.10
76762;BME280;65705;51.032;13.790;2023-07-20T02:22:38;99932.66;;;18.27;76.01
76762;BME280;65705;51.032;13.790;2023-07-20T02:25:05;99931.66;;;18.22;76.29
76762;BME280;65705;51.032;13.790;2023-07-20T02:27:33;99931.81;;;18.27;76.19
76762;BME280;65705;51.032;13.790;2023-07-20T02:29:59;99931.44;;;18.30;76.05
76762;BME280;65705;51.032;13.790;2023-07-20T02:32:24;99929.97;;;18.34;75.96
76762;BME280;65705;51.032;13.790;2023-07-20T02:34:50;99938.94;;;18.46;75.86
76762;BME280;65705;51.032;13.790;2023-07-20T02:37:17;99939.94;;;18.45;75.68
76762;BME280;65705;51.032;13.790;2023-07-20T02:39:42;99935.66;;;18.44;75.59
76762;BME280;65705;51.032;13.790;2023-07-20T02:42:08;99931.38;;;18.36;75.26
76762;BME280;65705;51.032;13.790;2023-07-20T02:44:34;99946.50;;;18.36;75.53
76762;BME280;65705;51.032;13.790;2023-07-20T02:47:00;99939.56;;;18.35;75.47
76762;BME280;65705;51.032;13.790;2023-07-20T02:49:26;99939.19;;;18.31;75.83
76762;BME280;65705;51.032;13.790;2023-07-20T02:51:52;99940.78;;;18.32;75.94
76762;BME280;65705;51.032;13.790;2023-07-20T02:54:18;99946.94;;;18.33;76.47
76762;BME280;65705;51.032;13.790;2023-07-20T02:56:44;99950.03;;;18.30;75.95
76762;BME280;65705;51.032;13.790;2023-07-20T02:59:09;99954.56;;;18.16;76.25
76762;BME280;65705;51.032;13.790;2023-07-20T03:01:35;99959.06;;;18.22;76.14
76762;BME280;65705;51.032;13.790;2023-07-20T03:04:01;99951.47;;;18.26;76.15
76762;BME280;65705;51.032;13.790;2023-07-20T03:06:28;99963.16;;;18.18;76.21
76762;BME280;65705;51.032;13.790;2023-07-20T03:08:53;99967.25;;;18.21;75.97
76762;BME280;65705;51.032;13.790;2023-07-20T03:11:20;99964.59;;;18.21;76.13
76762;BME280;65705;51.032;13.790;2023-07-20T03:13:46;99966.38;;;18.27;75.93
76762;BME280;65705;51.032;13.790;2023-07-20T03:16:14;99970.91;;;18.26;75.91
76762;BME280;65705;51.032;13.790;2023-07-20T03:18:41;99966.19;;;18.28;75.76
76762;BME280;65705;51.032;13.790;2023-07-20T03:21:09;99967.81;;;18.29;75.68
76762;BME280;65705;51.032;13.790;2023-07-20T03:23:37;99970.94;;;18.13;75.66
76762;BME280;65705;51.032;13.790;2023-07-20T03:26:03;99967.44;;;18.19;75.90
76762;BME280;65705;51.032;13.790;2023-07-20T03:28:30;99971.72;;;18.20;75.61
76762;BME280;65705;51.032;13.790;2023-07-20T03:30:56;99971.56;;;18.15;75.79
76762;BME280;65705;51.032;13.790;2023-07-20T03:33:27;99975.66;;;18.11;75.72
76762;BME280;65705;51.032;13.790;2023-07-20T03:35:54;99974.03;;;18.10;75.78
76762;BME280;65705;51.032;13.790;2023-07-20T03:38:21;99971.56;;;18.15;75.49
76762;BME280;65705;51.032;13.790;2023-07-20T03:40:51;99971.09;;;18.25;74.87
76762;BME280;65705;51.032;13.790;2023-07-20T03:43:17;99977.22;;;18.32;74.97
76762;BME280;65705;51.032;13.790;2023-07-20T03:45:43;99972.06;;;18.37;74.52
76762;BME280;65705;51.032;13.790;2023-07-20T03:48:11;99968.38;;;18.38;74.19
76762;BME280;65705;51.032;13.790;2023-07-20T03:50:38;99961.22;;;18.38;73.88
76762;BME280;65705;51.032;13.790;2023-07-20T03:53:03;99958.34;;;18.40;73.82
76762;BME280;65705;51.032;13.790;2023-07-20T03:55:30;99969.00;;;18.33;74.10
76762;BME280;65705;51.032;13.790;2023-07-20T03:57:56;99975.53;;;18.37;73.74
76762;BME280;65705;51.032;13.790;2023-07-20T04:00:22;99980.47;;;18.34;73.82
76762;BME280;65705;51.032;13.790;2023-07-20T04:02:49;99979.00;;;18.38;74.00
76762;BME280;65705;51.032;13.790;2023-07-20T04:05:14;99984.78;;;18.22;74.38
76762;BME280;65705;51.032;13.790;2023-07-20T04:07:40;99983.13;;;18.27;74.50
76762;BME280;65705;51.032;13.790;2023-07-20T04:10:06;99979.88;;;18.32;74.46
76762;BME280;65705;51.032;13.790;2023-07-20T04:12:34;99984.53;;;18.43;73.80
76762;BME280;65705;51.032;13.790;2023-07-20T04:15:00;99980.59;;;18.52;73.72
76762;BME280;65705;51.032;13.790;2023-07-20T04:17:27;99977.81;;;18.71;73.20
76762;BME280;65705;51.032;13.790;2023-07-20T04:19:53;99977.19;;;18.76;72.24
76762;BME280;65705;51.032;13.790;2023-07-20T04:22:18;99987.38;;;18.79;72.24
76762;BME280;65705;51.032;13.790;2023-07-20T04:24:44;99986.00;;;18.70;72.38
76762;BME280;65705;51.032;13.790;2023-07-20T04:27:10;99979.22;;;18.74;72.15
76762;BME280;65705;51.032;13.790;2023-07-20T04:29:36;99982.06;;;18.79;72.07
76762;BME280;65705;51.032;13.790;2023-07-20T04:32:01;99982.56;;;18.63;72.42
76762;BME280;65705;51.032;13.790;2023-07-20T04:34:28;99991.53;;;18.75;72.92
76762;BME280;65705;51.032;13.790;2023-07-20T04:36:54;99989.56;;;18.88;72.48
76762;BME280;65705;51.032;13.790;2023-07-20T04:39:22;99991.56;;;18.93;72.01
76762;BME280;65705;51.032;13.790;2023-07-20T04:41:48;99985.16;;;18.76;72.03
76762;BME280;65705;51.032;13.790;2023-07-20T04:44:15;99986.38;;;18.80;72.36
76762;BME280;65705;51.032;13.790;2023-07-20T04:46:41;99990.72;;;18.68;73.07
76762;BME280;65705;51.032;13.790;2023-07-20T04:49:07;99993.59;;;18.66;73.08
76762;BME280;65705;51.032;13.790;2023-07-20T04:51:38;99992.03;;;18.52;73.41
76762;BME280;65705;51.032;13.790;2023-07-20T04:54:03;99990.16;;;18.59;73.27
76762;BME280;65705;51.032;13.790;2023-07-20T04:56:33;99997.56;;;18.51;73.93
76762;BME280;65705;51.032;13.790;2023-07-20T04:59:00;99999.84;;;18.47;73.66
76762;BME280;65705;51.032;13.790;2023-07-20T05:01:26;99995.69;;;18.58;73.71
76762;BME280;65705;51.032;13.790;2023-07-20T05:03:54;100004.97;;;18.80;72.71
76762;BME280;65705;51.032;13.790;2023-07-20T05:06:20;100000.72;;;18.72;73.08
76762;BME280;65705;51.032;13.790;2023-07-20T05:08:46;100002.41;;;18.67;72.82
76762;BME280;65705;51.032;13.790;2023-07-20T05:11:12;99992.91;;;18.77;72.65
76762;BME280;65705;51.032;13.790;2023-07-20T05:13:38;99997.72;;;18.93;72.22
76762;BME280;65705;51.032;13.790;2023-07-20T05:16:04;99998.06;;;19.04;71.41
76762;BME280;65705;51.032;13.790;2023-07-20T05:18:31;99992.91;;;19.09;71.77
76762;BME280;65705;51.032;13.790;2023-07-20T05:20:57;99997.34;;;19.15;71.31
76762;BME280;65705;51.032;13.790;2023-07-20T05:23:22;99996.34;;;19.16;71.52
76762;BME280;65705;51.032;13.790;2023-07-20T05:25:55;100004.72;;;19.13;71.13
76762;BME280;65705;51.032;13.790;2023-07-20T05:28:25;99995.25;;;19.23;71.23
76762;BME280;65705;51.032;13.790;2023-07-20T05:30:52;100001.03;;;19.45;70.56
76762;BME280;65705;51.032;13.790;2023-07-20T05:33:19;99999.13;;;19.52;69.81
76762;BME280;65705;51.032;13.790;2023-07-20T05:35:45;99995.19;;;19.54;68.96
76762;BME280;65705;51.032;13.790;2023-07-20T05:38:10;100002.91;;;19.62;68.62
76762;BME280;65705;51.032;13.790;2023-07-20T05:40:41;99994.84;;;19.69;68.14
76762;BME280;65705;51.032;13.790;2023-07-20T05:43:08;99995.91;;;19.86;67.63
76762;BME280;65705;51.032;13.790;2023-07-20T05:45:34;99996.88;;;19.73;68.41
76762;BME280;65705;51.032;13.790;2023-07-20T05:48:00;99997.38;;;19.64;68.77
76762;BME280;65705;51.032;13.790;2023-07-20T05:50:25;99998.94;;;19.22;68.71
76762;BME280;65705;51.032;13.790;2023-07-20T05:52:54;100006.88;;;19.29;69.84
76762;BME280;65705;51.032;13.790;2023-07-20T05:55:20;100006.47;;;19.32;69.65
76762;BME280;65705;51.032;13.790;2023-07-20T05:57:46;100006.03;;;19.35;68.71
76762;BME280;65705;51.032;13.790;2023-07-20T06:00:13;100014.53;;;19.43;68.38
76762;BME280;65705;51.032;13.790;2023-07-20T06:02:39;100017.16;;;19.50;68.12
76762;BME280;65705;51.032;13.790;2023-07-20T06:05:06;100006.53;;;19.50;68.27
76762;BME280;65705;51.032;13.790;2023-07-20T06:07:38;100017.50;;;19.35;69.16
76762;BME280;65705;51.032;13.790;2023-07-20T06:10:05;100017.63;;;18.84;71.36
76762;BME280;65705;51.032;13.790;2023-07-20T06:12:31;100009.53;;;18.73;71.91
76762;BME280;65705;51.032;13.790;2023-07-20T06:15:02;100021.28;;;18.90;71.85
76762;BME280;65705;51.032;13.790;2023-07-20T06:17:29;100016.81;;;18.84;71.15
76762;BME280;65705;51.032;13.790;2023-07-20T06:19:55;100019.50;;;18.77;71.58
76762;BME280;65705;51.032;13.790;2023-07-20T06:22:21;100021.00;;;18.67;71.49
76762;BME280;65705;51.032;13.790;2023-07-20T06:24:46;100020.34;;;18.78;70.90
76762;BME280;65705;51.032;13.790;2023-07-20T06:27:12;100040.41;;;18.74;72.41
76762;BME280;65705;51.032;13.790;2023-07-20T06:29:38;100048.63;;;18.66;73.50
76762;BME280;65705;51.032;13.790;2023-07-20T06:32:05;100054.13;;;18.14;79.99
76762;BME280;65705;51.032;13.790;2023-07-20T06:34:30;100045.38;;;17.94;80.29
76762;BME280;65705;51.032;13.790;2023-07-20T06:36:56;100039.06;;;17.75;83.48
76762;BME280;65705;51.032;13.790;2023-07-20T06:39:22;100042.16;;;17.65;87.17
76762;BME280;65705;51.032;13.790;2023-07-20T06:41:48;100041.91;;;17.41;86.46
76762;BME280;65705;51.032;13.790;2023-07-20T06:44:14;100040.09;;;17.35;86.53
76762;BME280;65705;51.032;13.790;2023-07-20T06:46:39;100044.59;;;17.34;88.23
76762;BME280;65705;51.032;13.790;2023-07-20T06:49:06;100042.34;;;17.57;91.49
76762;BME280;65705;51.032;13.790;2023-07-20T06:51:33;100047.25;;;17.67;85.67
76762;BME280;65705;51.032;13.790;2023-07-20T06:53:59;100058.84;;;17.85;85.75
76762;BME280;65705;51.032;13.790;2023-07-20T06:56:24;100062.94;;;17.95;85.90
76762;BME280;65705;51.032;13.790;2023-07-20T06:58:50;100062.13;;;18.01;84.65
76762;BME280;65705;51.032;13.790;2023-07-20T07:01:16;100062.94;;;17.88;82.27
76762;BME280;65705;51.032;13.790;2023-07-20T07:03:42;100061.72;;;17.97;83.04
76762;BME280;65705;51.032;13.790;2023-07-20T07:06:09;100068.47;;;18.00;82.69
76762;BME280;65705;51.032;13.790;2023-07-20T07:08:35;100065.78;;;17.93;81.98
76762;BME280;65705;51.032;13.790;2023-07-20T07:11:01;100065.59;;;18.01;83.05
76762;BME280;65705;51.032;13.790;2023-07-20T07:13:27;100064.38;;;17.91;80.61
76762;BME280;65705;51.032;13.790;2023-07-20T07:15:53;100066.81;;;17.99;81.59
76762;BME280;65705;51.032;13.790;2023-07-20T07:18:19;100070.06;;;18.01;82.38
76762;BME280;65705;51.032;13.790;2023-07-20T07:20:53;100070.25;;;18.19;84.10
76762;BME280;65705;51.032;13.790;2023-07-20T07:23:19;100061.19;;;18.33;80.79
76762;BME280;65705;51.032;13.790;2023-07-20T07:25:45;100064.25;;;18.43;79.41
76762;BME280;65705;51.032;13.790;2023-07-20T07:28:11;100065.84;;;18.57;79.50
76762;BME280;65705;51.032;13.790;2023-07-20T07:30:36;100064.78;;;18.64;79.39
76762;BME280;65705;51.032;13.790;2023-07-20T07:33:03;100068.03;;;18.73;78.32
76762;BME280;65705;51.032;13.790;2023-07-20T07:35:28;100066.16;;;18.73;78.38
76762;BME280;65705;51.032;13.790;2023-07-20T07:37:54;100065.09;;;18.87;79.98
76762;BME280;65705;51.032;13.790;2023-07-20T07:40:20;100070.34;;;18.94;78.63
76762;BME280;65705;51.032;13.790;2023-07-20T07:42:46;100075.13;;;19.17;78.31
76762;BME280;65705;51.032;13.790;2023-07-20T07:45:13;100069.16;;;19.21;77.83
76762;BME280;65705;51.032;13.790;2023-07-20T07:47:39;100079.16;;;19.32;76.81
76762;BME280;65705;51.032;13.790;2023-07-20T07:50:05;100077.63;;;19.43;76.51
76762;BME280;65705;51.032;13.790;2023-07-20T07:52:31;100076.81;;;19.42;73.67
76762;BME280;65705;51.032;13.790;2023-07-20T07:54:57;100078.63;;;19.48;73.71
76762;BME280;65705;51.032;13.790;2023-07-20T07:57:23;100078.25;;;19.45;73.54
76762;BME280;65705;51.032;13.790;2023-07-20T07:59:49;100080.16;;;19.31;74.17
76762;BME280;65705;51.032;13.790;2023-07-20T08:02:15;100079.53;;;19.29;72.68
76762;BME280;65705;51.032;13.790;2023-07-20T08:04:41;100072.84;;;19.51;74.53
76762;BME280;65705;51.032;13.790;2023-07-20T08:07:07;100067.13;;;19.72;73.98
76762;BME280;65705;51.032;13.790;2023-07-20T08:09:33;100069.47;;;19.87;69.77
76762;BME280;65705;51.032;13.790;2023-07-20T08:11:58;100069.59;;;19.92;68.11
76762;BME280;65705;51.032;13.790;2023-07-20T08:14:25;100075.09;;;19.97;69.46
76762;BME280;65705;51.032;13.790;2023-07-20T08:16:50;100072.97;;;20.06;68.96
76762;BME280;65705;51.032;13.790;2023-07-20T08:19:17;100072.19;;;19.80;68.93
76762;BME280;65705;51.032;13.790;2023-07-20T08:21:42;100076.53;;;19.75;70.03
76762;BME280;65705;51.032;13.790;2023-07-20T08:24:08;100085.19;;;19.70;69.40
76762;BME280;65705;51.032;13.790;2023-07-20T08:26:34;100074.47;;;19.77;70.65
76762;BME280;65705;51.032;13.790;2023-07-20T08:29:00;100073.69;;;19.94;70.43
76762;BME280;65705;51.032;13.790;2023-07-20T08:31:25;100074.59;;;20.07;69.63
76762;BME280;65705;51.032;13.790;2023-07-20T08:33:53;100081.47;;;20.14;69.18
76762;BME280;65705;51.032;13.790;2023-07-20T08:36:19;100078.72;;;20.27;70.13
76762;BME280;65705;51.032;13.790;2023-07-20T08:38:45;100081.16;;;20.29;67.78
76762;BME280;65705;51.032;13.790;2023-07-20T08:41:11;100079.38;;;20.23;67.69
76762;BME280;65705;51.032;13.790;2023-07-20T08:43:38;100076.09;;;20.21;68.01
76762;BME280;65705;51.032;13.790;2023-07-20T08:46:07;100095.00;;;20.19;68.65
76762;BME280;65705;51.032;13.790;2023-07-20T08:48:36;100087.25;;;19.93;69.58
76762;BME280;65705;51.032;13.790;2023-07-20T08:51:04;100082.66;;;19.75;69.02
76762;BME280;65705;51.032;13.790;2023-07-20T08:53:32;100078.69;;;19.66;68.99
76762;BME280;65705;51.032;13.790;2023-07-20T08:55:59;100072.88;;;19.94;68.16
76762;BME280;65705;51.032;13.790;2023-07-20T08:58:26;100076.03;;;19.84;66.73
76762;BME280;65705;51.032;13.790;2023-07-20T09:00:54;100080.00;;;20.00;67.94
76762;BME280;65705;51.032;13.790;2023-07-20T09:03:19;100087.41;;;20.16;66.20
76762;BME280;65705;51.032;13.790;2023-07-20T09:05:45;100080.97;;;20.42;66.36
76762;BME280;65705;51.032;13.790;2023-07-20T09:08:12;100087.00;;;20.55;64.86
76762;BME280;65705;51.032;13.790;2023-07-20T09:10:37;100079.34;;;20.77;62.82
76762;BME280;65705;51.032;13.790;2023-07-20T09:13:04;100083.81;;;20.65;61.73
76762;BME280;65705;51.032;13.790;2023-07-20T09:15:30;100091.97;;;20.52;62.32
76762;BME280;65705;51.032;13.790;2023-07-20T09:17:56;100086.84;;;20.50;61.04
76762;BME280;65705;51.032;13.790;2023-07-20T09:20:22;100089.28;;;20.52;60.51
76762;BME280;65705;51.032;13.790;2023-07-20T09:22:47;100076.44;;;20.78;61.30
76762;BME280;65705;51.032;13.790;2023-07-20T09:25:17;100072.19;;;20.89;61.38
76762;BME280;65705;51.032;13.790;2023-07-20T09:27:47;100072.56;;;21.22;60.21
76762;BME280;65705;51.032;13.790;2023-07-20T09:30:15;100070.19;;;21.44;58.80
76762;BME280;65705;51.032;13.790;2023-07-20T09:32:45;100076.44;;;21.61;57.67
76762;BME280;65705;51.032;13.790;2023-07-20T09:35:16;100074.34;;;21.40;55.77
76762;BME280;65705;51.032;13.790;2023-07-20T09:40:20;100078.09;;;20.91;56.90
76762;BME280;65705;51.032;13.790;2023-07-20T09:42:46;100074.00;;;21.07;58.18
76762;BME280;65705;51.032;13.790;2023-07-20T09:45:12;100073.53;;;21.39;57.48
76762;BME280;65705;51.032;13.790;2023-07-20T09:47:38;100073.66;;;21.56;56.62
76762;BME280;65705;51.032;13.790;2023-07-20T09:50:06;100077.84;;;21.63;56.19
76762;BME280;65705;51.032;13.790;2023-07-20T09:52:40;100079.59;;;21.69;56.55
76762;BME280;65705;51.032;13.790;2023-07-20T09:55:07;100075.53;;;21.67;56.78
76762;BME280;65705;51.032;13.790;2023-07-20T09:57:34;100087.09;;;21.38;57.36
76762;BME280;65705;51.032;13.790;2023-07-20T10:00:03;100073.16;;;21.24;56.68
76762;BME280;65705;51.032;13.790;2023-07-20T10:02:37;100088.38;;;21.35;56.25
76762;BME280;65705;51.032;13.790;2023-07-20T10:05:07;100082.00;;;21.36;56.49
76762;BME280;65705;51.032;13.790;2023-07-20T10:07:36;100097.56;;;21.39;56.59
76762;BME280;65705;51.032;13.790;2023-07-20T10:10:06;100098.34;;;20.98;58.14
76762;BME280;65705;51.032;13.790;2023-07-20T10:12:37;100113.16;;;20.29;62.93
76762;BME280;65705;51.032;13.790;2023-07-20T10:15:15;100110.41;;;19.92;64.48
76762;BME280;65705;51.032;13.790;2023-07-20T10:20:27;100109.22;;;19.64;66.83
76762;BME280;65705;51.032;13.790;2023-07-20T10:22:55;100108.06;;;19.53;65.90
76762;BME280;65705;51.032;13.790;2023-07-20T10:25:25;100112.34;;;19.54;67.32
76762;BME280;65705;51.032;13.790;2023-07-20T10:27:51;100111.34;;;19.55;68.12
76762;BME280;65705;51.032;13.790;2023-07-20T10:30:17;100105.09;;;19.68;69.83
76762;BME280;65705;51.032;13.790;2023-07-20T10:32:45;100091.59;;;19.87;68.53
76762;BME280;65705;51.032;13.790;2023-07-20T10:35:18;100093.69;;;20.04;68.38
76762;BME280;65705;51.032;13.790;2023-07-20T10:40:38;100100.78;;;20.52;66.68
76762;BME280;65705;51.032;13.790;2023-07-20T10:43:06;100097.94;;;20.65;64.30
76762;BME280;65705;51.032;13.790;2023-07-20T10:45:36;100107.63;;;20.60;64.43
76762;BME280;65705;51.032;13.790;2023-07-20T10:48:06;100100.69;;;20.77;65.02
76762;BME280;65705;51.032;13.790;2023-07-20T10:50:33;100094.00;;;20.86;64.48
76762;BME280;65705;51.032;13.790;2023-07-20T10:53:16;100088.88;;;20.84;64.32
76762;BME280;65705;51.032;13.790;2023-07-20T10:55:42;100088.81;;;20.73;65.41
76762;BME280;65705;51.032;13.790;2023-07-20T10:58:14;100084.00;;;20.63;64.10
76762;BME280;65705;51.032;13.790;2023-07-20T11:01:01;100079.78;;;20.74;64.08
76762;BME280;65705;51.032;13.790;2023-07-20T11:03:33;100088.31;;;20.64;62.19
76762;BME280;65705;51.032;13.790;2023-07-20T11:08:56;100091.72;;;20.53;62.37
76762;BME280;65705;51.032;13.790;2023-07-20T11:13:56;100102.41;;;20.35;63.64
76762;BME280;65705;51.032;13.790;2023-07-20T11:16:43;100095.13;;;20.24;65.63
76762;BME280;65705;51.032;13.790;2023-07-20T11:19:29;100086.53;;;20.22;62.60
76762;BME280;65705;51.032;13.790;2023-07-20T11:21:57;100077.16;;;20.13;62.88
76762;BME280;65705;51.032;13.790;2023-07-20T11:24:23;100081.47;;;20.14;65.17
76762;BME280;65705;51.032;13.790;2023-07-20T11:26:53;100093.22;;;20.31;64.23
76762;BME280;65705;51.032;13.790;2023-07-20T11:29:21;100085.44;;;20.48;65.36
76762;BME280;65705;51.032;13.790;2023-07-20T11:31:48;100080.31;;;20.64;64.87
76762;BME280;65705;51.032;13.790;2023-07-20T11:34:17;100085.06;;;20.44;63.49
76762;BME280;65705;51.032;13.790;2023-07-20T11:36:45;100081.78;;;20.60;63.78
76762;BME280;65705;51.032;13.790;2023-07-20T11:39:14;100080.53;;;20.81;64.70
76762;BME280;65705;51.032;13.790;2023-07-20T11:41:46;100095.09;;;20.78;62.99
76762;BME280;65705;51.032;13.790;2023-07-20T11:44:12;100083.75;;;20.83;62.38
76762;BME280;65705;51.032;13.790;2023-07-20T11:46:44;100084.84;;;20.93;61.61
76762;BME280;65705;51.032;13.790;2023-07-20T11:49:10;100081.50;;;20.98;62.17
76762;BME280;65705;51.032;13.790;2023-07-20T11:51:37;100072.56;;;20.74;62.74
76762;BME280;65705;51.032;13.790;2023-07-20T11:54:05;100071.88;;;20.97;63.21
76762;BME280;65705;51.032;13.790;2023-07-20T11:56:32;100074.38;;;20.92;63.67
76762;BME280;65705;51.032;13.790;2023-07-20T11:58:58;100074.97;;;20.94;61.03
76762;BME280;65705;51.032;13.790;2023-07-20T12:01:26;100073.16;;;20.76;61.96
76762;BME280;65705;51.032;13.790;2023-07-20T12:03:59;100073.59;;;20.91;61.82
76762;BME280;65705;51.032;13.790;2023-07-20T12:06:27;100075.53;;;20.84;61.74
76762;BME280;65705;51.032;13.790;2023-07-20T12:08:55;100066.97;;;20.94;61.88
76762;BME280;65705;51.032;13.790;2023-07-20T12:11:37;100079.34;;;21.07;62.86
76762;BME280;65705;51.032;13.790;2023-07-20T12:14:06;100077.50;;;21.07;62.17
76762;BME280;65705;51.032;13.790;2023-07-20T12:16:32;100076.53;;;20.72;61.33
76762;BME280;65705;51.032;13.790;2023-07-20T12:19:06;100089.28;;;20.70;62.60
76762;BME280;65705;51.032;13.790;2023-07-20T12:21:35;100083.38;;;20.79;62.91
76762;BME280;65705;51.032;13.790;2023-07-20T12:24:03;100081.34;;;20.63;63.67
76762;BME280;65705;51.032;13.790;2023-07-20T12:26:30;100084.22;;;20.62;64.44
76762;BME280;65705;51.032;13.790;2023-07-20T12:28:55;100089.88;;;20.72;66.03
76762;BME280;65705;51.032;13.790;2023-07-20T12:31:22;100093.41;;;20.66;66.08
76762;BME280;65705;51.032;13.790;2023-07-20T12:33:50;100100.56;;;20.54;67.06
76762;BME280;65705;51.032;13.790;2023-07-20T12:36:17;100103.34;;;20.59;66.96
76762;BME280;65705;51.032;13.790;2023-07-20T12:38:43;100107.59;;;20.48;67.61
76762;BME280;65705;51.032;13.790;2023-07-20T12:41:10;100111.59;;;20.57;69.70
76762;BME280;65705;51.032;13.790;2023-07-20T12:43:38;100115.34;;;20.32;68.67
76762;BME280;65705;51.032;13.790;2023-07-20T12:46:05;100111.03;;;20.13;68.48
76762;BME280;65705;51.032;13.790;2023-07-20T12:48:31;100115.75;;;20.11;68.00
76762;BME280;65705;51.032;13.790;2023-07-20T12:50:57;100122.53;;;19.64;69.46
76762;BME280;65705;51.032;13.790;2023-07-20T12:53:23;100121.00;;;19.74;70.25
76762;BME280;65705;51.032;13.790;2023-07-20T12:55:49;100120.69;;;19.64;70.41
76762;BME280;65705;51.032;13.790;2023-07-20T12:58:15;100128.59;;;19.46;68.13
76762;BME280;65705;51.032;13.790;2023-07-20T13:00:41;100133.25;;;19.57;69.39
76762;BME280;65705;51.032;13.790;2023-07-20T13:03:07;100137.28;;;19.84;69.22
76762;BME280;65705;51.032;13.790;2023-07-20T13:05:35;100142.16;;;19.94;67.04
76762;BME280;65705;51.032;13.790;2023-07-20T13:08:02;100136.09;;;20.05;67.32
76762;BME280;65705;51.032;13.790;2023-07-20T13:10:29;100128.50;;;19.84;67.73